createdAt,value
2018-07-01T00:01:10.571Z,96895.23
2018-07-01T00:02:46.232Z,96890.77
2018-07-01T00:04:23.507Z,96888.34
2018-07-01T00:47:20.459Z,96898.20
2018-07-01T00:48:57.250Z,96908.34
2018-07-01T00:50:33.721Z,96905.77
2018-07-01T00:52:10.269Z,96901.34
2018-07-01T00:53:45.902Z,96903.48
2018-07-01T00:55:22.509Z,96895.05
2018-07-01T00:56:59.461Z,96894.44
2018-07-01T00:58:35.984Z,96895.81
2018-07-01T01:00:14.801Z,96902.70
2018-07-01T01:01:51.220Z,96900.85
2018-07-01T01:03:27.954Z,96901.62
2018-07-01T01:05:04.029Z,96898.81
2018-07-01T01:06:40.129Z,96893.43
2018-07-01T01:08:15.332Z,96900.04
2018-07-01T01:09:51.329Z,96897.12
2018-07-01T01:11:26.673Z,96895.57
2018-07-01T01:13:03.704Z,96899.55
2018-07-01T01:14:40.236Z,96899.80
2018-07-01T01:16:15.700Z,96894.73
2018-07-01T01:17:51.330Z,96890.63
2018-07-01T01:19:28.595Z,96882.19
2018-07-01T01:21:04.073Z,96883.63
2018-07-01T01:22:43.458Z,96881.32
2018-07-01T01:24:20.002Z,96890.81
2018-07-01T01:25:59.007Z,96888.17
2018-07-01T01:27:37.842Z,96877.34
2018-07-01T01:29:20.220Z,96879.80
2018-07-01T01:30:55.612Z,96877.98
2018-07-01T01:32:30.831Z,96881.17
2018-07-01T01:34:06.753Z,96869.87
2018-07-01T01:35:42.792Z,96880.06
2018-07-01T01:37:17.856Z,96885.05
2018-07-01T01:38:55.233Z,96887.03
2018-07-01T01:40:36.109Z,96888.80
2018-07-01T01:42:24.519Z,96888.82
2018-07-01T01:44:07.717Z,96881.03
2018-07-01T01:46:48.577Z,96892.22
2018-07-01T01:48:30.472Z,96893.97
2018-07-01T01:51:09.648Z,96897.80
2018-07-01T01:52:58.008Z,96897.12
2018-07-01T01:54:47.381Z,96892.08
2018-07-01T01:56:56.800Z,96888.86
2018-07-01T01:58:40.613Z,96884.11
2018-07-01T02:00:30.441Z,96879.52
2018-07-01T02:15:04.006Z,96888.39
2018-07-01T02:16:45.887Z,96881.38
2018-07-01T02:18:21.124Z,96889.02
2018-07-01T02:19:56.332Z,96890.86
2018-07-01T02:21:32.122Z,96893.95
2018-07-01T02:23:12.454Z,96894.70
2018-07-01T02:24:49.574Z,96887.37
2018-07-01T02:26:24.907Z,96885.66
2018-07-01T02:28:00.469Z,96889.64
2018-07-01T02:29:36.691Z,96889.66
2018-07-01T02:31:12.855Z,96892.92
2018-07-01T02:32:48.633Z,96895.20
2018-07-01T02:34:25.027Z,96901.64
2018-07-01T02:36:01.591Z,96892.30
2018-07-01T02:37:36.877Z,96903.02
2018-07-01T02:39:12.640Z,96889.87
2018-07-01T02:40:47.964Z,96897.05
2018-07-01T02:42:25.094Z,96898.44
2018-07-01T02:44:01.728Z,96898.59
2018-07-01T02:45:36.872Z,96895.22
2018-07-01T02:47:12.863Z,96892.92
2018-07-01T02:48:49.300Z,96894.61
2018-07-01T02:50:24.225Z,96891.86
2018-07-01T02:51:59.392Z,96893.86
2018-07-01T02:53:34.624Z,96893.76
2018-07-01T02:55:10.152Z,96892.08
2018-07-01T02:56:47.244Z,96892.64
2018-07-01T02:58:23.396Z,96888.49
2018-07-01T02:59:58.767Z,96892.47
2018-07-01T03:01:34.229Z,96888.33
2018-07-01T03:03:10.026Z,96895.08
2018-07-01T03:04:45.257Z,96893.10
2018-07-01T03:06:21.689Z,96897.44
2018-07-01T03:07:58.205Z,96893.61
2018-07-01T03:09:33.517Z,96900.59
2018-07-01T03:11:09.057Z,96897.42
2018-07-01T03:12:45.420Z,96899.11
2018-07-01T03:14:21.795Z,96901.16
2018-07-01T03:15:57.583Z,96902.38
2018-07-01T03:17:33.042Z,96906.67
2018-07-01T03:19:09.355Z,96902.39
2018-07-01T03:20:46.194Z,96901.46
2018-07-01T03:22:21.411Z,96905.45
2018-07-01T03:23:56.607Z,96909.31
2018-07-01T03:25:32.231Z,96899.69
2018-07-01T03:27:08.393Z,96905.81
2018-07-01T03:28:44.762Z,96908.44
2018-07-01T03:30:21.325Z,96900.05
2018-07-01T03:31:57.697Z,96900.17
2018-07-01T03:33:33.808Z,96906.59
2018-07-01T03:35:09.284Z,96903.22
2018-07-01T03:36:44.804Z,96909.48
2018-07-01T03:38:21.016Z,96905.03
2018-07-01T03:39:56.191Z,96908.09
2018-07-01T03:41:32.012Z,96909.02
2018-07-01T03:43:09.091Z,96915.77
2018-07-01T03:44:44.769Z,96921.27
2018-07-01T03:46:20.190Z,96922.78
2018-07-01T03:47:56.190Z,96915.61
2018-07-01T03:49:32.077Z,96915.31
2018-07-01T03:51:10.481Z,96921.70
2018-07-01T03:52:46.581Z,96920.94
2018-07-01T03:54:25.321Z,96915.75
2018-07-01T03:56:04.103Z,96909.50
2018-07-01T03:57:39.776Z,96915.30
2018-07-01T03:59:15.322Z,96918.20
2018-07-01T04:00:50.365Z,96916.20
2018-07-01T04:02:27.066Z,96917.59
2018-07-01T04:04:02.866Z,96911.17
2018-07-01T04:05:40.519Z,96926.29
2018-07-01T04:07:16.613Z,96923.55
2018-07-01T04:08:53.010Z,96919.61
2018-07-01T04:10:34.218Z,96921.25
2018-07-01T04:12:09.663Z,96922.19
2018-07-01T04:13:45.112Z,96922.16
2018-07-01T04:15:23.147Z,96921.70
2018-07-01T04:17:01.987Z,96917.52
2018-07-01T04:18:39.234Z,96920.41
2018-07-01T04:20:15.097Z,96919.80
2018-07-01T04:21:56.727Z,96921.95
2018-07-01T04:23:32.930Z,96924.23
2018-07-01T04:25:08.488Z,96925.15
2018-07-01T04:26:43.937Z,96932.33
2018-07-01T04:28:21.058Z,96929.58
2018-07-01T04:29:56.647Z,96928.66
2018-07-01T04:31:32.734Z,96928.91
2018-07-01T04:33:09.114Z,96935.59
2018-07-01T04:34:44.961Z,96934.67
2018-07-01T04:36:20.649Z,96933.14
2018-07-01T04:37:59.147Z,96929.61
2018-07-01T04:39:35.771Z,96927.02
2018-07-01T04:41:12.038Z,96926.25
2018-07-01T04:42:47.801Z,96930.82
2018-07-01T04:44:23.024Z,96928.31
2018-07-01T04:45:57.743Z,96930.69
2018-07-01T04:47:33.510Z,96932.31
2018-07-01T04:49:08.998Z,96929.63
2018-07-01T04:50:44.269Z,96920.95
2018-07-01T04:52:19.709Z,96922.75
2018-07-01T04:53:55.281Z,96923.60
2018-07-01T04:55:30.516Z,96920.77
2018-07-01T04:57:06.289Z,96922.63
2018-07-01T04:58:41.830Z,96920.27
2018-07-01T05:00:17.485Z,96911.52
2018-07-01T05:01:54.296Z,96918.34
2018-07-01T05:03:35.447Z,96921.65
2018-07-01T05:05:10.614Z,96917.03
2018-07-01T05:06:46.800Z,96920.48
2018-07-01T05:08:27.231Z,96922.86
2018-07-01T05:10:03.066Z,96916.30
2018-07-01T05:11:39.767Z,96923.28
2018-07-01T05:13:15.284Z,96925.77
2018-07-01T05:14:50.565Z,96931.91
2018-07-01T05:16:27.438Z,96934.38
2018-07-01T05:18:03.050Z,96931.34
2018-07-01T05:19:38.204Z,96936.18
2018-07-01T05:21:14.470Z,96939.23
2018-07-01T05:22:51.613Z,96938.91
2018-07-01T05:24:26.814Z,96936.99
2018-07-01T05:26:02.670Z,96940.03
2018-07-01T05:27:39.090Z,96947.52
2018-07-01T05:29:14.693Z,96943.95
2018-07-01T05:30:51.847Z,96941.66
2018-07-01T05:32:28.554Z,96950.55
2018-07-01T05:34:03.769Z,96948.23
2018-07-01T05:35:40.967Z,96954.52
2018-07-01T05:37:17.119Z,96957.91
2018-07-01T05:38:53.916Z,96956.70
2018-07-01T05:40:29.268Z,96951.60
2018-07-01T05:42:04.680Z,96954.37
2018-07-01T05:43:39.765Z,96959.59
2018-07-01T05:45:17.142Z,96956.16
2018-07-01T05:46:52.733Z,96955.41
2018-07-01T05:48:28.310Z,96958.08
2018-07-01T05:50:03.490Z,96957.45
2018-07-01T05:51:39.505Z,96951.91
2018-07-01T05:53:14.836Z,96957.47
2018-07-01T05:54:50.329Z,96962.73
2018-07-01T05:56:25.429Z,96957.11
2018-07-01T05:58:02.217Z,96958.88
2018-07-01T05:59:38.085Z,96960.89
2018-07-01T06:01:12.919Z,96956.61
2018-07-01T06:02:48.163Z,96948.41
2018-07-01T06:04:23.028Z,96952.95
2018-07-01T06:05:57.973Z,96948.16
2018-07-01T06:07:32.734Z,96949.90
2018-07-01T06:09:11.434Z,96957.88
2018-07-01T06:10:46.886Z,96960.27
2018-07-01T06:12:24.688Z,96958.48
2018-07-01T06:14:00.756Z,96960.00
2018-07-01T06:15:38.264Z,96963.20
2018-07-01T06:17:15.009Z,96962.91
2018-07-01T06:18:50.685Z,96955.86
2018-07-01T06:20:26.638Z,96951.54
2018-07-01T06:22:02.796Z,96957.70
2018-07-01T06:23:38.053Z,96952.14
2018-07-01T06:25:13.481Z,96960.08
2018-07-01T06:26:48.888Z,96953.84
2018-07-01T06:28:25.429Z,96971.32
2018-07-01T06:30:00.647Z,96965.20
2018-07-01T06:31:36.298Z,96972.33
2018-07-01T06:33:11.918Z,96974.23
2018-07-01T06:34:47.722Z,96979.41
2018-07-01T06:36:25.832Z,96970.48
2018-07-01T06:38:02.686Z,96974.13
2018-07-01T06:39:39.380Z,96972.63
2018-07-01T06:41:17.909Z,96974.84
2018-07-01T06:42:53.828Z,96975.22
2018-07-01T06:44:32.183Z,96975.92
2018-07-01T06:46:06.989Z,96977.09
2018-07-01T06:47:43.428Z,96974.27
2018-07-01T06:49:20.577Z,96976.99
2018-07-01T06:50:57.013Z,96978.33
2018-07-01T06:52:35.331Z,96980.46
2018-07-01T06:54:10.761Z,96979.09
2018-07-01T06:55:46.207Z,96973.67
2018-07-01T06:57:23.755Z,96978.47
2018-07-01T06:59:01.049Z,96973.98
2018-07-01T07:00:36.904Z,96979.55
2018-07-01T07:02:13.612Z,96976.01
2018-07-01T07:03:51.381Z,96980.28
2018-07-01T07:05:26.853Z,96986.86
2018-07-01T07:08:11.986Z,96975.47
2018-07-01T07:09:47.283Z,96980.79
2018-07-01T07:11:22.454Z,96987.17
2018-07-01T07:12:57.852Z,96988.31
2018-07-01T07:14:32.754Z,96979.25
2018-07-01T07:16:08.641Z,96989.32
2018-07-01T07:17:43.797Z,96994.87
2018-07-01T07:19:19.872Z,96993.00
2018-07-01T07:20:55.071Z,96994.89
2018-07-01T07:22:30.362Z,96987.92
2018-07-01T07:24:06.275Z,96985.86
2018-07-01T07:25:41.486Z,96989.25
2018-07-01T07:27:20.297Z,96983.88
2018-07-01T07:28:57.144Z,96996.06
2018-07-01T07:30:32.312Z,96994.25
2018-07-01T07:32:07.514Z,96991.05
2018-07-01T07:33:43.501Z,96991.09
2018-07-01T07:35:21.135Z,96998.83
2018-07-01T07:36:56.759Z,96995.52
2018-07-01T07:38:31.653Z,96998.81
2018-07-01T07:40:08.685Z,97002.72
2018-07-01T07:41:45.127Z,97003.67
2018-07-01T07:43:20.261Z,97000.75
2018-07-01T07:44:55.384Z,96998.70
2018-07-01T07:46:31.325Z,96995.05
2018-07-01T07:48:10.463Z,96992.97
2018-07-01T07:49:49.155Z,97001.06
2018-07-01T07:51:27.014Z,97002.58
2018-07-01T07:53:02.116Z,96989.75
2018-07-01T07:54:38.094Z,96988.90
2018-07-01T07:56:13.827Z,96992.65
2018-07-01T07:57:49.897Z,96993.80
2018-07-01T07:59:27.044Z,96994.12
2018-07-01T08:01:02.682Z,96994.17
2018-07-01T08:02:41.196Z,96983.34
2018-07-01T08:04:18.081Z,96991.55
2018-07-01T08:05:55.535Z,96999.11
2018-07-01T08:07:31.032Z,96993.52
2018-07-01T08:09:09.058Z,96995.92
2018-07-01T08:10:47.266Z,96991.35
2018-07-01T08:12:25.239Z,96990.89
2018-07-01T08:14:04.565Z,96994.86
2018-07-01T08:15:39.719Z,96999.05
2018-07-01T08:17:16.407Z,97004.63
2018-07-01T08:18:51.669Z,97007.68
2018-07-01T08:20:26.772Z,97007.70
2018-07-01T08:22:03.767Z,97006.39
2018-07-01T08:23:39.040Z,97006.61
2018-07-01T08:25:14.608Z,97005.03
2018-07-01T08:26:51.765Z,97000.85
2018-07-01T08:28:27.770Z,97001.73
2018-07-01T08:30:04.962Z,96996.05
2018-07-01T08:31:39.847Z,97003.88
2018-07-01T08:33:17.654Z,96999.73
2018-07-01T08:34:53.420Z,97005.72
2018-07-01T08:36:30.762Z,97009.25
2018-07-01T08:38:10.048Z,97005.55
2018-07-01T08:39:45.648Z,97010.34
2018-07-01T08:41:25.549Z,96998.17
2018-07-01T08:43:11.980Z,96999.58
2018-07-01T08:44:49.319Z,96998.16
2018-07-01T08:46:28.519Z,96995.38
2018-07-01T08:48:06.136Z,96994.44
2018-07-01T08:49:41.477Z,97008.73
2018-07-01T08:51:19.544Z,97008.13
2018-07-01T08:52:56.468Z,97007.09
2018-07-01T08:54:32.951Z,97005.39
2018-07-01T08:56:08.790Z,97010.62
2018-07-01T08:57:44.431Z,97012.95
2018-07-01T08:59:21.631Z,97007.31
2018-07-01T09:00:59.470Z,97003.05
2018-07-01T09:02:38.023Z,97000.14
2018-07-01T09:04:13.378Z,97004.91
2018-07-01T09:05:49.280Z,97010.88
2018-07-01T09:07:28.644Z,97008.02
2018-07-01T09:09:06.069Z,97009.25
2018-07-01T09:10:43.197Z,96996.77
2018-07-01T09:12:20.528Z,97002.25
2018-07-01T09:13:56.536Z,96994.47
2018-07-01T09:15:32.446Z,96991.83
2018-07-01T09:17:17.400Z,96988.31
2018-07-01T09:18:56.520Z,96993.17
2018-07-01T09:20:36.489Z,96988.96
2018-07-01T09:24:04.090Z,96994.36
2018-07-01T09:25:47.441Z,96991.97
2018-07-01T09:27:27.348Z,96999.29
2018-07-01T09:29:06.838Z,96992.82
2018-07-01T09:30:43.251Z,96993.55
2018-07-01T09:32:19.183Z,96980.55
2018-07-01T09:33:57.166Z,96982.72
2018-07-01T09:35:33.575Z,96983.27
2018-07-01T09:37:12.871Z,96979.61
2018-07-01T09:38:48.180Z,96976.57
2018-07-01T09:40:25.758Z,96979.04
2018-07-01T09:42:03.482Z,96978.99
2018-07-01T09:43:42.352Z,96975.03
2018-07-01T09:45:17.978Z,96969.83
2018-07-01T09:46:55.014Z,96975.28
2018-07-01T09:48:33.575Z,96979.81
2018-07-01T09:50:11.225Z,96987.12
2018-07-01T09:51:48.205Z,96981.50
2018-07-01T09:53:35.757Z,96980.61
2018-07-01T09:55:11.733Z,96977.16
2018-07-01T09:56:52.039Z,96982.25
2018-07-01T09:58:28.824Z,96979.42
2018-07-01T10:00:08.753Z,96982.34
2018-07-01T10:01:50.586Z,96975.84
2018-07-01T10:03:29.792Z,96970.33
2018-07-01T10:05:06.440Z,96979.60
2018-07-01T10:06:45.590Z,96977.59
2018-07-01T10:10:04.985Z,96977.30
2018-07-01T10:11:44.776Z,96974.09
2018-07-01T10:13:22.902Z,96982.13
2018-07-01T10:15:00.364Z,96979.80
2018-07-01T10:16:37.411Z,96975.22
2018-07-01T10:18:20.223Z,96976.41
2018-07-01T10:19:55.848Z,96968.36
2018-07-01T10:21:33.792Z,96970.28
2018-07-01T10:23:11.235Z,96972.76
2018-07-01T10:24:51.388Z,96974.07
2018-07-01T10:26:31.165Z,96963.33
2018-07-01T10:28:08.665Z,96975.84
2018-07-01T10:29:51.548Z,96976.14
2018-07-01T10:31:31.985Z,96975.81
2018-07-01T10:33:08.196Z,96981.34
2018-07-01T10:34:46.325Z,96977.58
2018-07-01T10:36:24.251Z,96969.09
2018-07-01T10:38:03.697Z,96970.86
2018-07-01T10:39:42.729Z,96960.62
2018-07-01T10:41:30.139Z,96963.23
2018-07-01T10:43:05.929Z,96962.24
2018-07-01T10:44:52.439Z,96965.26
2018-07-01T10:46:35.601Z,96963.99
2018-07-01T10:48:17.089Z,96962.93
2018-07-01T10:49:59.547Z,96963.42
2018-07-01T10:51:41.624Z,96961.08
2018-07-01T10:53:20.890Z,96957.28
2018-07-01T10:54:59.426Z,96956.33
2018-07-01T10:56:41.860Z,96962.11
2018-07-01T10:58:17.813Z,96955.73
2018-07-01T10:59:54.501Z,96956.14
2018-07-01T11:01:31.245Z,96955.62
2018-07-01T11:03:06.397Z,96963.61
2018-07-01T11:04:42.757Z,96958.83
2018-07-01T11:06:19.820Z,96958.17
2018-07-01T11:07:55.349Z,96955.86
2018-07-01T11:09:31.796Z,96955.96
2018-07-01T11:11:07.844Z,96961.14
2018-07-01T11:12:48.702Z,96953.52
2018-07-01T11:14:25.489Z,96951.85
2018-07-01T11:16:01.247Z,96957.66
2018-07-01T11:17:39.327Z,96946.94
2018-07-01T11:19:17.651Z,96938.52
2018-07-01T11:20:54.863Z,96936.47
2018-07-01T11:22:37.530Z,96938.02
2018-07-01T11:24:15.499Z,96949.70
2018-07-01T11:25:56.116Z,96935.65
2018-07-01T11:27:38.385Z,96933.97
2018-07-01T11:29:21.581Z,96939.38
2018-07-01T11:31:00.464Z,96942.00
2018-07-01T11:32:55.199Z,96935.20
2018-07-01T11:34:30.692Z,96932.80
2018-07-01T11:36:06.224Z,96939.08
2018-07-01T11:37:42.862Z,96938.99
2018-07-01T11:39:19.148Z,96932.88
2018-07-01T11:40:54.857Z,96926.44
2018-07-01T11:42:38.803Z,96924.41
2018-07-01T11:44:15.386Z,96922.57
2018-07-01T11:45:53.503Z,96919.39
2018-07-01T11:47:34.204Z,96923.47
2018-07-01T11:49:12.444Z,96925.03
2018-07-01T11:50:49.340Z,96927.77
2018-07-01T11:52:27.784Z,96925.41
2018-07-01T11:54:07.011Z,96927.48
2018-07-01T11:55:42.475Z,96928.61
2018-07-01T11:57:18.708Z,96931.27
2018-07-01T11:59:00.613Z,96929.34
2018-07-01T12:00:35.745Z,96928.58
2018-07-01T12:02:15.705Z,96925.34
2018-07-01T12:03:54.727Z,96918.60
2018-07-01T12:05:31.350Z,96920.83
2018-07-01T12:07:10.435Z,96913.73
2018-07-01T12:08:47.416Z,96918.98
2018-07-01T12:10:23.741Z,96921.69
2018-07-01T12:12:00.730Z,96918.81
2018-07-01T12:13:36.608Z,96914.67
2018-07-01T12:15:15.919Z,96906.42
2018-07-01T12:16:54.047Z,96904.41
2018-07-01T12:18:30.554Z,96915.33
2018-07-01T12:20:08.633Z,96911.66
2018-07-01T12:21:46.730Z,96908.51
2018-07-01T12:23:23.979Z,96906.59
2018-07-01T12:25:00.337Z,96898.55
2018-07-01T12:26:42.263Z,96903.22
2018-07-01T12:28:20.721Z,96898.53
2018-07-01T12:29:57.337Z,96896.69
2018-07-01T12:31:35.348Z,96902.66
2018-07-01T12:33:12.302Z,96890.63
2018-07-01T12:34:48.695Z,96896.24
2018-07-01T12:36:25.177Z,96894.34
2018-07-01T12:38:02.087Z,96900.56
2018-07-01T12:39:38.867Z,96897.56
2018-07-01T12:41:16.194Z,96898.12
2018-07-01T12:42:53.396Z,96892.16
2018-07-01T12:44:30.656Z,96897.88
2018-07-01T12:46:09.427Z,96899.20
2018-07-01T12:47:47.587Z,96904.92
2018-07-01T12:49:24.489Z,96898.86
2018-07-01T12:51:03.830Z,96896.17
2018-07-01T12:52:40.839Z,96884.53
2018-07-01T12:54:16.145Z,96886.84
2018-07-01T12:55:52.324Z,96887.62
2018-07-01T12:57:32.128Z,96890.14
2018-07-01T12:59:23.251Z,96896.33
2018-07-01T13:00:59.503Z,96889.23
2018-07-01T13:02:38.161Z,96893.56
2018-07-01T13:04:47.761Z,96892.09
2018-07-01T13:06:29.410Z,96884.16
2018-07-01T13:08:09.008Z,96880.41
2018-07-01T13:09:48.442Z,96890.82
2018-07-01T13:11:24.741Z,96887.62
2018-07-01T13:13:07.000Z,96890.89
2018-07-01T13:14:43.602Z,96883.08
2018-07-01T13:16:21.225Z,96892.54
2018-07-01T13:17:57.758Z,96890.89
2018-07-01T13:19:34.464Z,96883.35
2018-07-01T13:21:11.207Z,96881.68
2018-07-01T13:22:50.017Z,96883.00
2018-07-01T13:24:27.386Z,96879.33
2018-07-01T13:26:08.798Z,96877.88
2018-07-01T13:27:52.306Z,96879.02
2018-07-01T13:29:31.880Z,96870.98
2018-07-01T13:31:18.123Z,96879.67
2018-07-01T13:32:54.209Z,96878.75
2018-07-01T13:34:31.986Z,96873.28
2018-07-01T13:36:11.359Z,96876.12
2018-07-01T13:37:49.201Z,96873.84
2018-07-01T13:39:25.242Z,96875.50
2018-07-01T13:42:58.434Z,96884.59
2018-07-01T13:44:36.808Z,96875.20
2018-07-01T13:46:13.233Z,96880.46
2018-07-01T13:47:49.610Z,96882.00
2018-07-01T13:51:20.808Z,96873.16
2018-07-01T13:52:56.199Z,96866.95
2018-07-01T13:54:31.751Z,96867.87
2018-07-01T13:56:07.051Z,96865.57
2018-07-01T13:57:43.289Z,96869.03
2018-07-01T13:59:23.435Z,96867.66
2018-07-01T14:00:58.836Z,96865.67
2018-07-01T14:02:35.241Z,96870.67
2018-07-01T14:04:13.461Z,96865.38
2018-07-01T14:05:48.311Z,96858.76
2018-07-01T14:07:25.455Z,96855.83
2018-07-01T14:09:00.463Z,96856.23
2018-07-01T14:10:37.570Z,96853.77
2018-07-01T14:12:12.686Z,96850.59
2018-07-01T14:13:49.625Z,96846.48
2018-07-01T14:15:28.537Z,96856.96
2018-07-01T14:17:08.368Z,96854.25
2018-07-01T14:18:45.015Z,96847.31
2018-07-01T14:20:28.692Z,96852.17
2018-07-01T14:22:05.854Z,96846.75
2018-07-01T14:23:44.766Z,96841.22
2018-07-01T14:25:22.352Z,96843.57
2018-07-01T14:27:00.229Z,96834.38
2018-07-01T14:28:37.459Z,96839.36
2018-07-01T14:30:24.064Z,96842.83
2018-07-01T14:32:01.932Z,96839.26
2018-07-01T14:33:41.526Z,96836.64
2018-07-01T14:35:18.561Z,96837.64
2018-07-01T14:36:57.073Z,96837.66
2018-07-01T14:38:34.453Z,96831.47
2018-07-01T14:40:10.528Z,96833.27
2018-07-01T14:41:45.595Z,96831.73
2018-07-01T14:43:26.572Z,96825.76
2018-07-01T14:45:06.575Z,96827.44
2018-07-01T14:46:42.774Z,96828.95
2018-07-01T14:48:21.017Z,96816.94
2018-07-01T14:50:01.900Z,96833.16
2018-07-01T14:51:42.267Z,96825.20
2018-07-01T14:53:33.034Z,96824.42
2018-07-01T14:55:11.541Z,96826.14
2018-07-01T14:56:51.687Z,96830.67
2018-07-01T14:58:30.600Z,96824.20
2018-07-01T15:00:09.002Z,96832.14
2018-07-01T15:01:47.213Z,96825.31
2018-07-01T15:03:23.725Z,96831.56
2018-07-01T15:05:00.138Z,96825.58
2018-07-01T15:06:40.377Z,96835.05
2018-07-01T15:08:17.512Z,96831.59
2018-07-01T15:09:53.525Z,96827.06
2018-07-01T15:11:34.328Z,96826.33
2018-07-01T15:13:09.853Z,96822.39
2018-07-01T15:14:45.146Z,96808.78
2018-07-01T15:16:36.733Z,96819.38
2018-07-01T15:18:12.633Z,96820.78
2018-07-01T15:19:49.896Z,96822.95
2018-07-01T15:21:28.371Z,96817.51
2018-07-01T15:23:07.505Z,96816.19
2018-07-01T15:26:30.494Z,96811.61
2018-07-01T15:28:08.686Z,96812.00
2018-07-01T15:29:44.689Z,96817.80
2018-07-01T15:31:21.006Z,96813.73
2018-07-01T15:33:02.589Z,96804.55
2018-07-01T15:34:37.744Z,96797.73
2018-07-01T15:36:14.320Z,96808.25
2018-07-01T15:37:49.921Z,96813.95
2018-07-01T15:39:25.027Z,96807.30
2018-07-01T15:41:00.680Z,96808.70
2018-07-01T15:42:38.629Z,96807.56
2018-07-01T15:44:14.459Z,96804.27
2018-07-01T15:45:49.634Z,96805.97
2018-07-01T15:47:27.307Z,96800.89
2018-07-01T15:49:03.761Z,96795.92
2018-07-01T15:50:41.194Z,96796.77
2018-07-01T15:52:17.344Z,96793.52
2018-07-01T15:53:55.131Z,96804.83
2018-07-01T15:55:32.499Z,96800.44
2018-07-01T15:57:08.481Z,96802.42
2018-07-01T15:58:44.277Z,96802.02
2018-07-01T16:00:25.242Z,96798.95
2018-07-01T16:02:00.672Z,96799.95
2018-07-01T16:03:39.633Z,96785.91
2018-07-01T16:05:16.600Z,96792.83
2018-07-01T16:06:52.660Z,96794.08
2018-07-01T16:08:28.628Z,96798.47
2018-07-01T16:10:03.817Z,96792.30
2018-07-01T16:11:41.890Z,96792.50
2018-07-01T16:13:17.263Z,96790.14
2018-07-01T16:14:52.581Z,96794.72
2018-07-01T16:16:28.005Z,96799.98
2018-07-01T16:18:08.737Z,96799.98
2018-07-01T16:19:44.572Z,96798.14
2018-07-01T16:21:20.237Z,96793.07
2018-07-01T16:22:56.351Z,96797.84
2018-07-01T16:24:37.321Z,96793.78
2018-07-01T16:26:19.455Z,96792.31
2018-07-01T16:27:59.489Z,96790.09
2018-07-01T16:29:35.167Z,96792.64
2018-07-01T16:31:11.507Z,96797.70
2018-07-01T16:32:48.664Z,96798.81
2018-07-01T16:34:26.967Z,96791.83
2018-07-01T16:36:04.182Z,96792.48
2018-07-01T16:37:42.109Z,96790.36
2018-07-01T16:39:18.235Z,96790.25
2018-07-01T16:40:53.703Z,96801.39
2018-07-01T16:42:44.735Z,96805.16
2018-07-01T16:44:21.373Z,96804.55
2018-07-01T16:45:57.343Z,96803.84
2018-07-01T16:47:35.309Z,96802.25
2018-07-01T16:49:13.256Z,96803.61
2018-07-01T16:50:55.278Z,96795.24
2018-07-01T16:52:32.329Z,96804.16
2018-07-01T16:54:10.023Z,96802.85
2018-07-01T16:55:47.378Z,96797.89
2018-07-01T16:57:25.405Z,96796.95
2018-07-01T16:59:03.364Z,96800.18
2018-07-01T17:00:44.863Z,96804.34
2018-07-01T17:02:22.685Z,96799.53
2018-07-01T17:04:02.390Z,96798.05
2018-07-01T17:05:42.580Z,96800.09
2018-07-01T17:07:22.709Z,96796.67
2018-07-01T17:09:15.607Z,96800.09
2018-07-01T17:10:59.576Z,96802.72
2018-07-01T17:12:46.551Z,96804.48
2018-07-01T17:14:26.324Z,96800.52
2018-07-01T17:16:07.194Z,96801.02
2018-07-01T17:17:43.301Z,96807.01
2018-07-01T17:19:25.547Z,96810.13
2018-07-01T17:21:01.352Z,96803.97
2018-07-01T17:22:39.343Z,96803.66
2018-07-01T17:24:18.183Z,96803.92
2018-07-01T17:25:57.987Z,96805.33
2018-07-01T17:27:39.040Z,96810.45
2018-07-01T17:29:16.336Z,96798.68
2018-07-01T17:33:02.141Z,96809.99
2018-07-01T17:34:48.068Z,96802.34
2018-07-01T17:36:49.506Z,96812.48
2018-07-01T17:38:26.769Z,96812.69
2018-07-01T17:40:04.526Z,96816.45
2018-07-01T17:41:43.455Z,96816.33
2018-07-01T17:43:21.018Z,96814.92
2018-07-01T17:44:59.380Z,96818.37
2018-07-01T17:46:38.102Z,96809.84
2018-07-01T17:48:14.887Z,96810.11
2018-07-01T17:49:51.646Z,96808.45
2018-07-01T17:51:30.916Z,96801.98
2018-07-01T17:53:09.690Z,96808.72
2018-07-01T17:54:47.470Z,96809.61
2018-07-01T17:56:24.857Z,96807.00
2018-07-01T17:58:00.933Z,96808.82
2018-07-01T17:59:39.942Z,96814.14
2018-07-01T18:01:16.289Z,96812.45
2018-07-01T18:02:53.088Z,96810.72
2018-07-01T18:04:30.570Z,96812.12
2018-07-01T18:06:08.006Z,96810.02
2018-07-01T18:07:43.700Z,96810.86
2018-07-01T18:09:18.970Z,96809.34
2018-07-01T18:10:55.969Z,96813.86
2018-07-01T18:12:32.875Z,96812.06
2018-07-01T18:14:12.597Z,96815.30
2018-07-01T18:15:50.254Z,96814.10
2018-07-01T18:17:26.144Z,96809.50
2018-07-01T18:19:08.270Z,96811.30
2018-07-01T18:20:43.256Z,96811.85
2018-07-01T18:22:44.110Z,96810.50
2018-07-01T18:24:27.526Z,96808.34
2018-07-01T18:25:33.287Z,96817.28
2018-07-01T18:27:11.848Z,96801.92
2018-07-01T18:28:59.160Z,96814.69
2018-07-01T18:30:24.297Z,96813.00
2018-07-01T18:32:01.217Z,96805.78
2018-07-01T18:33:40.539Z,96807.80
2018-07-01T18:35:16.548Z,96808.44
2018-07-01T18:36:54.407Z,96814.00
2018-07-01T18:38:29.720Z,96807.43
2018-07-01T18:40:05.995Z,96815.55
2018-07-01T18:41:44.782Z,96819.34
2018-07-01T18:43:22.779Z,96821.58
2018-07-01T18:45:00.432Z,96816.28
2018-07-01T18:46:37.407Z,96819.40
2018-07-01T18:48:17.997Z,96812.88
2018-07-01T18:50:00.241Z,96815.95
2018-07-01T18:51:40.526Z,96820.68
2018-07-01T18:53:22.667Z,96817.11
2018-07-01T18:55:00.333Z,96815.26
2018-07-01T18:56:36.628Z,96817.36
2018-07-01T18:58:15.737Z,96816.95
2018-07-01T18:59:51.242Z,96814.39
2018-07-01T19:01:30.074Z,96824.73
2018-07-01T19:03:07.176Z,96819.05
2018-07-01T19:04:50.596Z,96820.17
2018-07-01T19:06:28.120Z,96818.27
2018-07-01T19:08:05.480Z,96822.77
2018-07-01T19:09:44.832Z,96823.88
2018-07-01T19:11:22.081Z,96824.00
2018-07-01T19:13:02.728Z,96824.59
2018-07-01T19:14:43.725Z,96820.94
2018-07-01T19:16:23.403Z,96819.06
2018-07-01T19:18:03.274Z,96823.68
2018-07-01T19:19:42.519Z,96821.91
2018-07-01T19:21:20.424Z,96829.58
2018-07-01T19:22:57.061Z,96828.86
2018-07-01T19:24:36.702Z,96835.83
2018-07-01T19:26:15.556Z,96840.00
2018-07-01T19:27:54.517Z,96836.36
2018-07-01T19:29:30.599Z,96838.51
2018-07-01T19:31:09.842Z,96846.20
2018-07-01T19:32:48.737Z,96845.37
2018-07-01T19:34:24.094Z,96847.25
2018-07-01T19:36:02.679Z,96845.97
2018-07-01T19:37:38.091Z,96850.36
2018-07-01T19:39:14.590Z,96851.19
2018-07-01T19:40:51.309Z,96853.52
2018-07-01T19:42:31.068Z,96856.66
2018-07-01T19:45:43.727Z,96859.33
2018-07-01T19:47:25.714Z,96856.77
2018-07-01T19:49:05.766Z,96860.52
2018-07-01T19:50:44.001Z,96866.22
2018-07-01T19:52:26.213Z,96863.90
2018-07-01T19:54:02.687Z,96867.13
2018-07-01T19:55:40.007Z,96870.18
2018-07-01T19:57:28.023Z,96877.02
2018-07-01T19:59:11.608Z,96871.61
2018-07-01T20:00:49.556Z,96873.58
2018-07-01T20:02:26.559Z,96876.98
2018-07-01T20:04:07.848Z,96877.30
2018-07-01T20:05:44.793Z,96876.47
2018-07-01T20:07:29.054Z,96882.99
2018-07-01T20:09:09.762Z,96883.34
2018-07-01T20:10:56.329Z,96889.44
2018-07-01T20:12:33.535Z,96895.12
2018-07-01T20:14:12.527Z,96890.00
2018-07-01T20:15:51.572Z,96884.82
2018-07-01T20:17:35.791Z,96890.97
2018-07-01T20:19:17.243Z,96881.22